sensor_id;sensor_type;location;lat;lon;timestamp;P1;durP1;ratioP1;P2;durP2;ratioP2
49193;SDS011;35029;50.804;12.866;2023-04-15T00:01:24;6.93;;;6.22;;
49193;SDS011;35029;50.804;12.866;2023-04-15T00:03:51;7.32;;;6.57;;
49193;SDS011;35029;50.804;12.866;2023-04-15T00:06:18;6.90;;;6.00;;
49193;SDS011;35029;50.804;12.866;2023-04-15T00:08:47;8.40;;;6.38;;
49193;SDS011;35029;50.804;12.866;2023-04-15T00:11:13;8.02;;;7.32;;
49193;SDS011;35029;50.804;12.866;2023-04-15T00:13:39;7.18;;;6.47;;
49193;SDS011;35029;50.804;12.866;2023-04-15T00:16:05;7.70;;;7.00;;
49193;SDS011;35029;50.804;12.866;2023-04-15T00:18:33;8.77;;;7.35;;
49193;SDS011;35029;50.804;12.866;2023-04-15T00:20:59;7.72;;;6.93;;
49193;SDS011;35029;50.804;12.866;2023-04-15T00:23:26;7.90;;;7.13;;
49193;SDS011;35029;50.804;12.866;2023-04-15T00:25:52;7.72;;;6.93;;
49193;SDS011;35029;50.804;12.866;2023-04-15T00:28:18;7.20;;;6.55;;
49193;SDS011;35029;50.804;12.866;2023-04-15T00:30:44;8.43;;;6.47;;
49193;SDS011;35029;50.804;12.866;2023-04-15T00:33:10;7.60;;;6.90;;
49193;SDS011;35029;50.804;12.866;2023-04-15T00:35:35;7.28;;;6.55;;
49193;SDS011;35029;50.804;12.866;2023-04-15T00:38:05;7.03;;;6.10;;
49193;SDS011;35029;50.804;12.866;2023-04-15T00:40:32;6.78;;;6.18;;
49193;SDS011;35029;50.804;12.866;2023-04-15T00:42:58;6.63;;;6.03;;
49193;SDS011;35029;50.804;12.866;2023-04-15T00:45:24;7.30;;;6.60;;
49193;SDS011;35029;50.804;12.866;2023-04-15T00:47:51;6.40;;;5.88;;
49193;SDS011;35029;50.804;12.866;2023-04-15T00:50:17;9.50;;;7.00;;
49193;SDS011;35029;50.804;12.866;2023-04-15T00:52:42;7.30;;;6.65;;
49193;SDS011;35029;50.804;12.866;2023-04-15T00:55:08;9.45;;;8.55;;
49193;SDS011;35029;50.804;12.866;2023-04-15T00:57:34;9.25;;;8.35;;
49193;SDS011;35029;50.804;12.866;2023-04-15T01:00:00;7.57;;;6.82;;
49193;SDS011;35029;50.804;12.866;2023-04-15T01:02:27;7.07;;;6.47;;
49193;SDS011;35029;50.804;12.866;2023-04-15T01:04:52;7.57;;;6.88;;
49193;SDS011;35029;50.804;12.866;2023-04-15T01:07:18;6.28;;;5.70;;
49193;SDS011;35029;50.804;12.866;2023-04-15T01:09:44;6.30;;;5.70;;
49193;SDS011;35029;50.804;12.866;2023-04-15T01:12:13;5.47;;;4.97;;
49193;SDS011;35029;50.804;12.866;2023-04-15T01:14:41;5.32;;;4.82;;
49193;SDS011;35029;50.804;12.866;2023-04-15T01:17:07;5.18;;;4.68;;
49193;SDS011;35029;50.804;12.866;2023-04-15T01:19:33;6.43;;;5.20;;
49193;SDS011;35029;50.804;12.866;2023-04-15T01:22:01;5.32;;;4.82;;
49193;SDS011;35029;50.804;12.866;2023-04-15T01:24:29;4.78;;;4.38;;
49193;SDS011;35029;50.804;12.866;2023-04-15T01:26:55;5.45;;;4.82;;
49193;SDS011;35029;50.804;12.866;2023-04-15T01:29:22;5.85;;;5.28;;
49193;SDS011;35029;50.804;12.866;2023-04-15T01:31:52;5.53;;;5.03;;
49193;SDS011;35029;50.804;12.866;2023-04-15T01:34:20;6.03;;;5.43;;
49193;SDS011;35029;50.804;12.866;2023-04-15T01:36:46;5.97;;;5.40;;
49193;SDS011;35029;50.804;12.866;2023-04-15T01:39:12;6.57;;;5.90;;
49193;SDS011;35029;50.804;12.866;2023-04-15T01:41:39;5.00;;;4.60;;
49193;SDS011;35029;50.804;12.866;2023-04-15T01:44:06;5.28;;;4.78;;
49193;SDS011;35029;50.804;12.866;2023-04-15T01:46:32;5.18;;;4.70;;
49193;SDS011;35029;50.804;12.866;2023-04-15T01:48:58;5.05;;;4.65;;
49193;SDS011;35029;50.804;12.866;2023-04-15T01:51:24;5.22;;;4.75;;
49193;SDS011;35029;50.804;12.866;2023-04-15T01:53:51;4.90;;;4.43;;
49193;SDS011;35029;50.804;12.866;2023-04-15T01:56:17;4.38;;;3.97;;
49193;SDS011;35029;50.804;12.866;2023-04-15T01:58:43;4.50;;;4.10;;
49193;SDS011;35029;50.804;12.866;2023-04-15T02:01:09;5.50;;;4.30;;
49193;SDS011;35029;50.804;12.866;2023-04-15T02:03:35;5.10;;;4.60;;
49193;SDS011;35029;50.804;12.866;2023-04-15T02:06:01;6.80;;;5.47;;
49193;SDS011;35029;50.804;12.866;2023-04-15T02:08:29;5.53;;;4.65;;
49193;SDS011;35029;50.804;12.866;2023-04-15T02:10:54;8.10;;;5.38;;
49193;SDS011;35029;50.804;12.866;2023-04-15T02:13:20;4.90;;;4.40;;
49193;SDS011;35029;50.804;12.866;2023-04-15T02:15:47;5.95;;;5.45;;
49193;SDS011;35029;50.804;12.866;2023-04-15T02:18:15;5.93;;;5.43;;
49193;SDS011;35029;50.804;12.866;2023-04-15T02:20:42;6.75;;;6.05;;
49193;SDS011;35029;50.804;12.866;2023-04-15T02:23:08;6.28;;;5.68;;
49193;SDS011;35029;50.804;12.866;2023-04-15T02:25:35;6.70;;;6.10;;
49193;SDS011;35029;50.804;12.866;2023-04-15T02:28:04;6.28;;;5.78;;
49193;SDS011;35029;50.804;12.866;2023-04-15T02:30:30;6.80;;;6.18;;
49193;SDS011;35029;50.804;12.866;2023-04-15T02:33:01;6.65;;;6.00;;
49193;SDS011;35029;50.804;12.866;2023-04-15T02:35:27;8.38;;;7.47;;
49193;SDS011;35029;50.804;12.866;2023-04-15T02:37:54;8.07;;;7.28;;
49193;SDS011;35029;50.804;12.866;2023-04-15T02:40:20;9.85;;;7.93;;
49193;SDS011;35029;50.804;12.866;2023-04-15T02:42:45;8.40;;;7.57;;
49193;SDS011;35029;50.804;12.866;2023-04-15T02:45:14;8.15;;;7.35;;
49193;SDS011;35029;50.804;12.866;2023-04-15T02:47:40;7.53;;;6.82;;
49193;SDS011;35029;50.804;12.866;2023-04-15T02:50:10;9.55;;;7.75;;
49193;SDS011;35029;50.804;12.866;2023-04-15T02:52:38;8.45;;;7.65;;
49193;SDS011;35029;50.804;12.866;2023-04-15T02:55:06;7.60;;;6.95;;
49193;SDS011;35029;50.804;12.866;2023-04-15T02:57:33;7.43;;;6.72;;
49193;SDS011;35029;50.804;12.866;2023-04-15T03:00:04;7.40;;;6.70;;
49193;SDS011;35029;50.804;12.866;2023-04-15T03:02:33;7.00;;;6.40;;
49193;SDS011;35029;50.804;12.866;2023-04-15T03:04:59;6.57;;;5.97;;
49193;SDS011;35029;50.804;12.866;2023-04-15T03:07:26;7.38;;;6.78;;
49193;SDS011;35029;50.804;12.866;2023-04-15T03:09:52;6.97;;;6.38;;
49193;SDS011;35029;50.804;12.866;2023-04-15T03:12:17;7.68;;;6.88;;
49193;SDS011;35029;50.804;12.866;2023-04-15T03:14:43;7.63;;;6.82;;
49193;SDS011;35029;50.804;12.866;2023-04-15T03:17:09;9.23;;;6.95;;
49193;SDS011;35029;50.804;12.866;2023-04-15T03:19:35;7.60;;;6.78;;
49193;SDS011;35029;50.804;12.866;2023-04-15T03:22:04;7.05;;;6.45;;
49193;SDS011;35029;50.804;12.866;2023-04-15T03:24:30;8.80;;;7.30;;
49193;SDS011;35029;50.804;12.866;2023-04-15T03:26:56;7.10;;;6.45;;
49193;SDS011;35029;50.804;12.866;2023-04-15T03:29:25;7.05;;;6.40;;
49193;SDS011;35029;50.804;12.866;2023-04-15T03:31:53;6.90;;;6.25;;
49193;SDS011;35029;50.804;12.866;2023-04-15T03:34:18;7.53;;;6.82;;
49193;SDS011;35029;50.804;12.866;2023-04-15T03:36:44;6.88;;;6.28;;
49193;SDS011;35029;50.804;12.866;2023-04-15T03:39:12;6.65;;;6.05;;
49193;SDS011;35029;50.804;12.866;2023-04-15T03:41:52;6.60;;;5.90;;
49193;SDS011;35029;50.804;12.866;2023-04-15T03:44:19;7.18;;;6.22;;
49193;SDS011;35029;50.804;12.866;2023-04-15T03:46:50;5.43;;;4.93;;
49193;SDS011;35029;50.804;12.866;2023-04-15T03:51:43;5.43;;;5.03;;
49193;SDS011;35029;50.804;12.866;2023-04-15T03:54:09;5.35;;;4.85;;
49193;SDS011;35029;50.804;12.866;2023-04-15T03:56:36;4.70;;;4.30;;
49193;SDS011;35029;50.804;12.866;2023-04-15T03:59:01;4.82;;;4.43;;
49193;SDS011;35029;50.804;12.866;2023-04-15T04:01:27;4.65;;;4.25;;
49193;SDS011;35029;50.804;12.866;2023-04-15T04:03:52;4.70;;;4.30;;
49193;SDS011;35029;50.804;12.866;2023-04-15T04:06:20;4.45;;;4.05;;
49193;SDS011;35029;50.804;12.866;2023-04-15T04:08:45;4.03;;;3.70;;
49193;SDS011;35029;50.804;12.866;2023-04-15T04:11:11;3.65;;;3.35;;
49193;SDS011;35029;50.804;12.866;2023-04-15T04:13:36;4.28;;;3.88;;
49193;SDS011;35029;50.804;12.866;2023-04-15T04:16:02;4.63;;;4.22;;
49193;SDS011;35029;50.804;12.866;2023-04-15T04:18:30;5.32;;;4.82;;
49193;SDS011;35029;50.804;12.866;2023-04-15T04:20:57;5.18;;;4.70;;
49193;SDS011;35029;50.804;12.866;2023-04-15T04:23:23;5.63;;;5.13;;
49193;SDS011;35029;50.804;12.866;2023-04-15T04:25:48;5.80;;;5.28;;
49193;SDS011;35029;50.804;12.866;2023-04-15T04:28:14;5.35;;;4.85;;
49193;SDS011;35029;50.804;12.866;2023-04-15T04:30:43;5.38;;;4.88;;
49193;SDS011;35029;50.804;12.866;2023-04-15T04:33:08;5.57;;;5.03;;
49193;SDS011;35029;50.804;12.866;2023-04-15T04:35:35;6.45;;;5.85;;
49193;SDS011;35029;50.804;12.866;2023-04-15T04:38:02;5.93;;;5.43;;
49193;SDS011;35029;50.804;12.866;2023-04-15T04:40:28;6.93;;;5.97;;
49193;SDS011;35029;50.804;12.866;2023-04-15T04:42:54;7.20;;;6.60;;
49193;SDS011;35029;50.804;12.866;2023-04-15T04:45:19;7.25;;;6.55;;
49193;SDS011;35029;50.804;12.866;2023-04-15T04:47:47;7.25;;;6.55;;
49193;SDS011;35029;50.804;12.866;2023-04-15T04:50:13;8.45;;;7.65;;
49193;SDS011;35029;50.804;12.866;2023-04-15T04:52:38;8.27;;;7.47;;
49193;SDS011;35029;50.804;12.866;2023-04-15T04:55:04;7.97;;;7.18;;
49193;SDS011;35029;50.804;12.866;2023-04-15T04:57:30;9.15;;;7.88;;
49193;SDS011;35029;50.804;12.866;2023-04-15T04:59:57;8.90;;;8.00;;
49193;SDS011;35029;50.804;12.866;2023-04-15T05:02:22;8.40;;;7.50;;
49193;SDS011;35029;50.804;12.866;2023-04-15T05:04:51;9.50;;;8.50;;
49193;SDS011;35029;50.804;12.866;2023-04-15T05:07:19;8.80;;;7.75;;
49193;SDS011;35029;50.804;12.866;2023-04-15T05:09:45;8.48;;;7.68;;
49193;SDS011;35029;50.804;12.866;2023-04-15T05:12:11;8.82;;;7.93;;
49193;SDS011;35029;50.804;12.866;2023-04-15T05:14:39;9.18;;;8.27;;
49193;SDS011;35029;50.804;12.866;2023-04-15T05:17:06;8.85;;;7.72;;
49193;SDS011;35029;50.804;12.866;2023-04-15T05:19:33;8.60;;;7.40;;
49193;SDS011;35029;50.804;12.866;2023-04-15T05:21:58;7.95;;;7.00;;
49193;SDS011;35029;50.804;12.866;2023-04-15T05:24:25;6.85;;;6.22;;
49193;SDS011;35029;50.804;12.866;2023-04-15T05:26:51;8.27;;;6.50;;
49193;SDS011;35029;50.804;12.866;2023-04-15T05:29:17;8.00;;;6.72;;
49193;SDS011;35029;50.804;12.866;2023-04-15T05:31:43;8.57;;;6.75;;
49193;SDS011;35029;50.804;12.866;2023-04-15T05:34:08;6.57;;;5.45;;
49193;SDS011;35029;50.804;12.866;2023-04-15T05:36:35;5.72;;;5.22;;
49193;SDS011;35029;50.804;12.866;2023-04-15T05:39:01;6.45;;;5.82;;
49193;SDS011;35029;50.804;12.866;2023-04-15T05:41:29;6.28;;;5.63;;
49193;SDS011;35029;50.804;12.866;2023-04-15T05:43:54;5.80;;;5.20;;
49193;SDS011;35029;50.804;12.866;2023-04-15T05:46:21;6.05;;;5.45;;
49193;SDS011;35029;50.804;12.866;2023-04-15T05:48:46;5.57;;;4.97;;
49193;SDS011;35029;50.804;12.866;2023-04-15T05:51:12;6.15;;;5.03;;
49193;SDS011;35029;50.804;12.866;2023-04-15T05:53:37;5.47;;;4.95;;
49193;SDS011;35029;50.804;12.866;2023-04-15T05:56:04;5.43;;;4.95;;
49193;SDS011;35029;50.804;12.866;2023-04-15T05:58:30;5.32;;;4.80;;
49193;SDS011;35029;50.804;12.866;2023-04-15T06:00:55;5.53;;;4.78;;
49193;SDS011;35029;50.804;12.866;2023-04-15T06:03:21;4.80;;;4.40;;
49193;SDS011;35029;50.804;12.866;2023-04-15T06:05:47;5.47;;;4.97;;
49193;SDS011;35029;50.804;12.866;2023-04-15T06:08:12;4.25;;;3.85;;
49193;SDS011;35029;50.804;12.866;2023-04-15T06:10:38;4.85;;;4.35;;
49193;SDS011;35029;50.804;12.866;2023-04-15T06:13:03;5.30;;;4.70;;
49193;SDS011;35029;50.804;12.866;2023-04-15T06:15:29;5.32;;;4.82;;
49193;SDS011;35029;50.804;12.866;2023-04-15T06:17:55;5.32;;;4.80;;
49193;SDS011;35029;50.804;12.866;2023-04-15T06:20:22;5.55;;;4.78;;
49193;SDS011;35029;50.804;12.866;2023-04-15T06:22:49;4.38;;;3.97;;
49193;SDS011;35029;50.804;12.866;2023-04-15T06:25:16;4.03;;;3.63;;
49193;SDS011;35029;50.804;12.866;2023-04-15T06:27:42;3.80;;;3.50;;
49193;SDS011;35029;50.804;12.866;2023-04-15T06:30:07;4.22;;;3.83;;
49193;SDS011;35029;50.804;12.866;2023-04-15T06:32:33;3.42;;;3.13;;
49193;SDS011;35029;50.804;12.866;2023-04-15T06:34:59;3.38;;;3.08;;
49193;SDS011;35029;50.804;12.866;2023-04-15T06:37:25;3.67;;;3.38;;
49193;SDS011;35029;50.804;12.866;2023-04-15T06:39:52;3.28;;;2.95;;
49193;SDS011;35029;50.804;12.866;2023-04-15T06:42:17;3.35;;;3.05;;
49193;SDS011;35029;50.804;12.866;2023-04-15T06:44:43;3.65;;;3.35;;
49193;SDS011;35029;50.804;12.866;2023-04-15T06:47:09;3.90;;;3.50;;
49193;SDS011;35029;50.804;12.866;2023-04-15T06:49:34;3.30;;;3.00;;
49193;SDS011;35029;50.804;12.866;2023-04-15T06:52:01;3.72;;;3.42;;
49193;SDS011;35029;50.804;12.866;2023-04-15T06:54:29;3.60;;;3.20;;
49193;SDS011;35029;50.804;12.866;2023-04-15T06:56:54;3.65;;;3.35;;
49193;SDS011;35029;50.804;12.866;2023-04-15T06:59:20;3.40;;;3.10;;
49193;SDS011;35029;50.804;12.866;2023-04-15T07:01:46;5.03;;;3.22;;
49193;SDS011;35029;50.804;12.866;2023-04-15T07:04:12;4.13;;;3.72;;
49193;SDS011;35029;50.804;12.866;2023-04-15T07:06:37;5.63;;;4.32;;
49193;SDS011;35029;50.804;12.866;2023-04-15T07:09:03;4.32;;;3.92;;
49193;SDS011;35029;50.804;12.866;2023-04-15T07:11:29;6.65;;;4.35;;
49193;SDS011;35029;50.804;12.866;2023-04-15T07:13:56;4.00;;;3.70;;
49193;SDS011;35029;50.804;12.866;2023-04-15T07:16:22;4.72;;;4.32;;
49193;SDS011;35029;50.804;12.866;2023-04-15T07:18:49;4.47;;;4.07;;
49193;SDS011;35029;50.804;12.866;2023-04-15T07:21:15;4.80;;;4.20;;
49193;SDS011;35029;50.804;12.866;2023-04-15T07:23:41;4.55;;;4.15;;
49193;SDS011;35029;50.804;12.866;2023-04-15T07:26:07;4.18;;;3.83;;
49193;SDS011;35029;50.804;12.866;2023-04-15T07:28:33;4.20;;;3.80;;
49193;SDS011;35029;50.804;12.866;2023-04-15T07:30:58;3.40;;;3.10;;
49193;SDS011;35029;50.804;12.866;2023-04-15T07:33:24;2.92;;;2.72;;
49193;SDS011;35029;50.804;12.866;2023-04-15T07:35:50;2.80;;;2.53;;
49193;SDS011;35029;50.804;12.866;2023-04-15T07:38:15;4.07;;;2.85;;
49193;SDS011;35029;50.804;12.866;2023-04-15T07:40:42;2.85;;;2.63;;
49193;SDS011;35029;50.804;12.866;2023-04-15T07:43:08;2.80;;;2.60;;
49193;SDS011;35029;50.804;12.866;2023-04-15T07:45:34;4.95;;;2.70;;
49193;SDS011;35029;50.804;12.866;2023-04-15T07:48:00;3.10;;;2.47;;
49193;SDS011;35029;50.804;12.866;2023-04-15T07:50:28;2.38;;;2.17;;
49193;SDS011;35029;50.804;12.866;2023-04-15T07:52:54;2.55;;;2.22;;
49193;SDS011;35029;50.804;12.866;2023-04-15T07:55:20;5.15;;;2.38;;
49193;SDS011;35029;50.804;12.866;2023-04-15T07:57:47;3.47;;;2.35;;
49193;SDS011;35029;50.804;12.866;2023-04-15T08:00:14;2.92;;;2.72;;
49193;SDS011;35029;50.804;12.866;2023-04-15T08:02:40;4.65;;;2.58;;
49193;SDS011;35029;50.804;12.866;2023-04-15T08:05:07;2.90;;;2.70;;
49193;SDS011;35029;50.804;12.866;2023-04-15T08:07:37;2.72;;;2.53;;
49193;SDS011;35029;50.804;12.866;2023-04-15T08:10:04;6.50;;;2.60;;
49193;SDS011;35029;50.804;12.866;2023-04-15T08:12:30;3.00;;;2.70;;
49193;SDS011;35029;50.804;12.866;2023-04-15T08:14:56;3.38;;;2.80;;
49193;SDS011;35029;50.804;12.866;2023-04-15T08:17:23;2.60;;;2.38;;
49193;SDS011;35029;50.804;12.866;2023-04-15T08:19:49;3.80;;;2.47;;
49193;SDS011;35029;50.804;12.866;2023-04-15T08:22:14;2.55;;;2.35;;
49193;SDS011;35029;50.804;12.866;2023-04-15T08:24:41;2.60;;;2.40;;
49193;SDS011;35029;50.804;12.866;2023-04-15T08:27:06;2.88;;;2.53;;
49193;SDS011;35029;50.804;12.866;2023-04-15T08:29:33;2.67;;;2.10;;
49193;SDS011;35029;50.804;12.866;2023-04-15T08:31:59;3.05;;;1.75;;
49193;SDS011;35029;50.804;12.866;2023-04-15T08:34:26;2.10;;;1.98;;
49193;SDS011;35029;50.804;12.866;2023-04-15T08:36:51;2.35;;;1.60;;
49193;SDS011;35029;50.804;12.866;2023-04-15T08:39:17;3.08;;;2.25;;
49193;SDS011;35029;50.804;12.866;2023-04-15T08:42:01;2.15;;;1.95;;
49193;SDS011;35029;50.804;12.866;2023-04-15T08:44:29;1.58;;;1.48;;
49193;SDS011;35029;50.804;12.866;2023-04-15T08:46:59;1.80;;;1.70;;
49193;SDS011;35029;50.804;12.866;2023-04-15T08:49:25;1.55;;;1.45;;
49193;SDS011;35029;50.804;12.866;2023-04-15T08:51:52;2.03;;;1.83;;
49193;SDS011;35029;50.804;12.866;2023-04-15T08:54:20;2.28;;;1.73;;
49193;SDS011;35029;50.804;12.866;2023-04-15T08:56:47;1.42;;;1.33;;
49193;SDS011;35029;50.804;12.866;2023-04-15T08:59:13;1.55;;;1.45;;
49193;SDS011;35029;50.804;12.866;2023-04-15T09:01:40;1.60;;;1.50;;
49193;SDS011;35029;50.804;12.866;2023-04-15T09:04:06;1.90;;;1.80;;
49193;SDS011;35029;50.804;12.866;2023-04-15T09:06:32;1.58;;;1.40;;
49193;SDS011;35029;50.804;12.866;2023-04-15T09:08:58;1.27;;;1.17;;
49193;SDS011;35029;50.804;12.866;2023-04-15T09:11:24;1.60;;;1.50;;
49193;SDS011;35029;50.804;12.866;2023-04-15T09:13:50;2.05;;;1.63;;
49193;SDS011;35029;50.804;12.866;2023-04-15T09:16:16;2.33;;;1.85;;
49193;SDS011;35029;50.804;12.866;2023-04-15T09:18:41;1.90;;;1.70;;
49193;SDS011;35029;50.804;12.866;2023-04-15T09:21:08;1.90;;;1.80;;
49193;SDS011;35029;50.804;12.866;2023-04-15T09:23:36;2.22;;;2.03;;
49193;SDS011;35029;50.804;12.866;2023-04-15T09:26:03;2.15;;;2.00;;
49193;SDS011;35029;50.804;12.866;2023-04-15T09:28:29;1.70;;;1.60;;
49193;SDS011;35029;50.804;12.866;2023-04-15T09:30:58;2.13;;;1.95;;
49193;SDS011;35029;50.804;12.866;2023-04-15T09:33:25;2.20;;;2.10;;
49193;SDS011;35029;50.804;12.866;2023-04-15T09:35:56;1.80;;;1.70;;
49193;SDS011;35029;50.804;12.866;2023-04-15T09:38:22;2.15;;;1.95;;
49193;SDS011;35029;50.804;12.866;2023-04-15T09:40:48;2.20;;;2.10;;
49193;SDS011;35029;50.804;12.866;2023-04-15T09:43:13;2.15;;;1.95;;
49193;SDS011;35029;50.804;12.866;2023-04-15T09:45:48;2.45;;;2.25;;
49193;SDS011;35029;50.804;12.866;2023-04-15T09:48:19;2.10;;;1.90;;
49193;SDS011;35029;50.804;12.866;2023-04-15T09:50:51;2.03;;;1.92;;
49193;SDS011;35029;50.804;12.866;2023-04-15T09:53:22;7.72;;;2.65;;
49193;SDS011;35029;50.804;12.866;2023-04-15T09:55:54;2.42;;;2.22;;
49193;SDS011;35029;50.804;12.866;2023-04-15T10:00:52;2.80;;;2.53;;
49193;SDS011;35029;50.804;12.866;2023-04-15T10:03:20;3.13;;;2.20;;
49193;SDS011;35029;50.804;12.866;2023-04-15T10:05:51;2.58;;;2.38;;
49193;SDS011;35029;50.804;12.866;2023-04-15T10:08:18;2.57;;;2.37;;
49193;SDS011;35029;50.804;12.866;2023-04-15T10:10:45;2.53;;;2.33;;
49193;SDS011;35029;50.804;12.866;2023-04-15T10:13:19;2.42;;;2.22;;
49193;SDS011;35029;50.804;12.866;2023-04-15T10:15:49;2.20;;;2.00;;
49193;SDS011;35029;50.804;12.866;2023-04-15T10:18:18;2.50;;;2.30;;
49193;SDS011;35029;50.804;12.866;2023-04-15T10:20:46;3.35;;;2.50;;
49193;SDS011;35029;50.804;12.866;2023-04-15T10:23:14;2.95;;;2.65;;
49193;SDS011;35029;50.804;12.866;2023-04-15T10:25:41;2.45;;;2.25;;
49193;SDS011;35029;50.804;12.866;2023-04-15T10:28:07;2.95;;;2.67;;
49193;SDS011;35029;50.804;12.866;2023-04-15T10:30:33;5.22;;;3.03;;
49193;SDS011;35029;50.804;12.866;2023-04-15T10:33:00;2.78;;;2.58;;
49193;SDS011;35029;50.804;12.866;2023-04-15T10:35:28;3.47;;;3.17;;
49193;SDS011;35029;50.804;12.866;2023-04-15T10:37:55;3.15;;;2.95;;
49193;SDS011;35029;50.804;12.866;2023-04-15T10:42:52;3.33;;;3.03;;
49193;SDS011;35029;50.804;12.866;2023-04-15T10:45:18;3.50;;;3.20;;
49193;SDS011;35029;50.804;12.866;2023-04-15T10:47:44;3.22;;;2.90;;
49193;SDS011;35029;50.804;12.866;2023-04-15T10:50:09;3.13;;;2.83;;
49193;SDS011;35029;50.804;12.866;2023-04-15T10:52:36;3.47;;;3.17;;
49193;SDS011;35029;50.804;12.866;2023-04-15T10:55:18;3.15;;;2.85;;
49193;SDS011;35029;50.804;12.866;2023-04-15T10:57:44;3.70;;;3.40;;
49193;SDS011;35029;50.804;12.866;2023-04-15T11:02:43;4.30;;;3.90;;
49193;SDS011;35029;50.804;12.866;2023-04-15T11:05:12;4.03;;;3.60;;
49193;SDS011;35029;50.804;12.866;2023-04-15T11:13:04;3.75;;;3.45;;
49193;SDS011;35029;50.804;12.866;2023-04-15T11:15:40;4.32;;;3.92;;
49193;SDS011;35029;50.804;12.866;2023-04-15T11:18:12;4.57;;;4.18;;
49193;SDS011;35029;50.804;12.866;2023-04-15T11:20:41;4.50;;;4.10;;
49193;SDS011;35029;50.804;12.866;2023-04-15T11:23:09;5.95;;;3.90;;
49193;SDS011;35029;50.804;12.866;2023-04-15T11:25:35;4.50;;;4.10;;
49193;SDS011;35029;50.804;12.866;2023-04-15T11:28:02;3.90;;;3.60;;
49193;SDS011;35029;50.804;12.866;2023-04-15T11:30:29;4.03;;;3.72;;
49193;SDS011;35029;50.804;12.866;2023-04-15T11:32:58;3.88;;;3.58;;
49193;SDS011;35029;50.804;12.866;2023-04-15T11:35:32;4.75;;;4.35;;
49193;SDS011;35029;50.804;12.866;2023-04-15T11:38:03;4.78;;;4.38;;
49193;SDS011;35029;50.804;12.866;2023-04-15T11:40:30;5.82;;;5.32;;
49193;SDS011;35029;50.804;12.866;2023-04-15T11:43:05;8.07;;;4.53;;
49193;SDS011;35029;50.804;12.866;2023-04-15T11:45:53;5.75;;;5.25;;
49193;SDS011;35029;50.804;12.866;2023-04-15T11:48:28;4.55;;;4.15;;
49193;SDS011;35029;50.804;12.866;2023-04-15T11:50:56;5.85;;;5.15;;
49193;SDS011;35029;50.804;12.866;2023-04-15T11:53:23;5.80;;;5.30;;
49193;SDS011;35029;50.804;12.866;2023-04-15T11:55:51;6.07;;;5.57;;
49193;SDS011;35029;50.804;12.866;2023-04-15T11:58:19;7.65;;;6.85;;
49193;SDS011;35029;50.804;12.866;2023-04-15T12:00:47;7.60;;;6.20;;
49193;SDS011;35029;50.804;12.866;2023-04-15T12:03:17;6.05;;;5.47;;
49193;SDS011;35029;50.804;12.866;2023-04-15T12:11:17;6.25;;;5.65;;
49193;SDS011;35029;50.804;12.866;2023-04-15T12:13:47;7.57;;;6.50;;
49193;SDS011;35029;50.804;12.866;2023-04-15T12:16:20;7.60;;;6.90;;
49193;SDS011;35029;50.804;12.866;2023-04-15T12:18:46;7.55;;;6.85;;
49193;SDS011;35029;50.804;12.866;2023-04-15T12:21:17;8.07;;;7.35;;
49193;SDS011;35029;50.804;12.866;2023-04-15T12:23:47;8.05;;;7.35;;
49193;SDS011;35029;50.804;12.866;2023-04-15T12:26:14;6.93;;;6.40;;
49193;SDS011;35029;50.804;12.866;2023-04-15T12:28:40;7.20;;;6.60;;
49193;SDS011;35029;50.804;12.866;2023-04-15T12:31:06;7.25;;;6.57;;
49193;SDS011;35029;50.804;12.866;2023-04-15T12:33:33;6.20;;;5.70;;
49193;SDS011;35029;50.804;12.866;2023-04-15T12:35:59;6.45;;;5.85;;
49193;SDS011;35029;50.804;12.866;2023-04-15T12:38:25;6.60;;;6.07;;
49193;SDS011;35029;50.804;12.866;2023-04-15T12:40:52;6.32;;;5.78;;
49193;SDS011;35029;50.804;12.866;2023-04-15T12:43:18;7.03;;;6.43;;
49193;SDS011;35029;50.804;12.866;2023-04-15T12:45:44;7.82;;;7.13;;
49193;SDS011;35029;50.804;12.866;2023-04-15T12:48:09;8.07;;;7.38;;
49193;SDS011;35029;50.804;12.866;2023-04-15T12:50:35;9.50;;;8.70;;
49193;SDS011;35029;50.804;12.866;2023-04-15T12:53:01;8.77;;;7.80;;
49193;SDS011;35029;50.804;12.866;2023-04-15T12:55:27;8.25;;;7.55;;
49193;SDS011;35029;50.804;12.866;2023-04-15T12:57:54;8.10;;;7.35;;
49193;SDS011;35029;50.804;12.866;2023-04-15T13:00:21;8.10;;;7.30;;
49193;SDS011;35029;50.804;12.866;2023-04-15T13:02:46;8.05;;;7.25;;
49193;SDS011;35029;50.804;12.866;2023-04-15T13:05:12;8.20;;;7.40;;
49193;SDS011;35029;50.804;12.866;2023-04-15T13:07:43;7.10;;;6.40;;
49193;SDS011;35029;50.804;12.866;2023-04-15T13:10:09;7.38;;;6.68;;
49193;SDS011;35029;50.804;12.866;2023-04-15T13:12:35;8.05;;;7.25;;
49193;SDS011;35029;50.804;12.866;2023-04-15T13:15:01;7.13;;;6.53;;
49193;SDS011;35029;50.804;12.866;2023-04-15T13:17:28;8.40;;;7.60;;
49193;SDS011;35029;50.804;12.866;2023-04-15T13:19:54;7.20;;;6.57;;
49193;SDS011;35029;50.804;12.866;2023-04-15T13:22:19;7.13;;;6.53;;
49193;SDS011;35029;50.804;12.866;2023-04-15T13:24:45;7.78;;;7.07;;
49193;SDS011;35029;50.804;12.866;2023-04-15T13:27:11;7.80;;;7.05;;
49193;SDS011;35029;50.804;12.866;2023-04-15T13:29:36;7.72;;;7.03;;
49193;SDS011;35029;50.804;12.866;2023-04-15T13:32:03;7.57;;;6.97;;
49193;SDS011;35029;50.804;12.866;2023-04-15T13:34:33;8.15;;;7.45;;
49193;SDS011;35029;50.804;12.866;2023-04-15T13:37:04;7.78;;;7.13;;
49193;SDS011;35029;50.804;12.866;2023-04-15T13:39:30;8.90;;;8.10;;
49193;SDS011;35029;50.804;12.866;2023-04-15T13:41:56;8.20;;;7.35;;
49193;SDS011;35029;50.804;12.866;2023-04-15T13:44:21;7.57;;;6.88;;
49193;SDS011;35029;50.804;12.866;2023-04-15T13:46:47;8.02;;;7.32;;
49193;SDS011;35029;50.804;12.866;2023-04-15T13:49:13;7.72;;;7.03;;
49193;SDS011;35029;50.804;12.866;2023-04-15T13:51:39;8.13;;;7.35;;
49193;SDS011;35029;50.804;12.866;2023-04-15T13:54:04;7.60;;;6.90;;
49193;SDS011;35029;50.804;12.866;2023-04-15T13:56:30;8.75;;;7.85;;
49193;SDS011;35029;50.804;12.866;2023-04-15T13:58:56;8.70;;;7.90;;
49193;SDS011;35029;50.804;12.866;2023-04-15T14:01:26;8.48;;;7.68;;
49193;SDS011;35029;50.804;12.866;2023-04-15T14:03:51;9.00;;;8.20;;
49193;SDS011;35029;50.804;12.866;2023-04-15T14:06:17;8.38;;;7.57;;
49193;SDS011;35029;50.804;12.866;2023-04-15T14:08:42;8.50;;;7.70;;
49193;SDS011;35029;50.804;12.866;2023-04-15T14:11:08;8.45;;;7.70;;
49193;SDS011;35029;50.804;12.866;2023-04-15T14:13:34;8.10;;;7.38;;
49193;SDS011;35029;50.804;12.866;2023-04-15T14:16:00;8.57;;;7.85;;
49193;SDS011;35029;50.804;12.866;2023-04-15T14:18:26;8.82;;;7.95;;
49193;SDS011;35029;50.804;12.866;2023-04-15T14:20:51;9.93;;;8.93;;
49193;SDS011;35029;50.804;12.866;2023-04-15T14:23:17;9.55;;;8.55;;
49193;SDS011;35029;50.804;12.866;2023-04-15T14:25:44;9.48;;;8.68;;
49193;SDS011;35029;50.804;12.866;2023-04-15T14:28:09;9.18;;;8.32;;
49193;SDS011;35029;50.804;12.866;2023-04-15T14:30:35;9.80;;;8.80;;
49193;SDS011;35029;50.804;12.866;2023-04-15T14:33:01;8.68;;;7.78;;
49193;SDS011;35029;50.804;12.866;2023-04-15T14:35:26;8.50;;;7.72;;
49193;SDS011;35029;50.804;12.866;2023-04-15T14:37:52;8.63;;;7.82;;
49193;SDS011;35029;50.804;12.866;2023-04-15T14:40:18;8.15;;;7.45;;
49193;SDS011;35029;50.804;12.866;2023-04-15T14:42:44;7.95;;;7.25;;
49193;SDS011;35029;50.804;12.866;2023-04-15T14:45:10;7.57;;;6.97;;
49193;SDS011;35029;50.804;12.866;2023-04-15T14:47:36;9.82;;;7.03;;
49193;SDS011;35029;50.804;12.866;2023-04-15T14:50:01;7.93;;;7.22;;
49193;SDS011;35029;50.804;12.866;2023-04-15T14:52:29;8.93;;;8.13;;